createdAt,value
2019-05-10T00:00:20.040Z,5.80
2019-05-10T00:03:08.607Z,5.75
2019-05-10T00:05:57.226Z,5.70
2019-05-10T00:08:45.743Z,5.65
2019-05-10T00:11:30.019Z,5.69
2019-05-10T00:14:19.013Z,5.83
2019-05-10T00:16:51.021Z,5.86
2019-05-10T00:19:21.956Z,5.92
2019-05-10T00:21:52.840Z,5.89
2019-05-10T00:24:23.728Z,5.71
2019-05-10T00:26:54.514Z,5.61
2019-05-10T00:29:25.205Z,5.47
2019-05-10T00:31:55.873Z,5.41
2019-05-10T00:34:26.498Z,5.46
2019-05-10T00:36:57.188Z,5.31
2019-05-10T00:39:28.279Z,5.11
2019-05-10T00:41:58.901Z,4.95
2019-05-10T00:44:29.746Z,5.11
2019-05-10T00:47:00.887Z,5.30
2019-05-10T00:49:31.794Z,5.24
2019-05-10T00:52:02.633Z,5.11
2019-05-10T00:54:33.310Z,5.00
2019-05-10T00:57:03.873Z,4.92
2019-05-10T00:59:34.938Z,4.79
2019-05-10T01:02:05.583Z,4.76
2019-05-10T01:04:36.580Z,4.74
2019-05-10T01:07:07.253Z,4.70
2019-05-10T01:09:38.992Z,4.67
2019-05-10T01:12:10.915Z,4.70
2019-05-10T01:14:43.242Z,4.98
2019-05-10T01:17:13.896Z,4.89
2019-05-10T01:19:44.627Z,4.89
2019-05-10T01:22:15.254Z,4.95
2019-05-10T01:24:47.523Z,5.00
2019-05-10T01:27:18.297Z,5.01
2019-05-10T01:29:50.903Z,5.02
2019-05-10T01:32:23.115Z,4.96
2019-05-10T01:34:54.035Z,4.96
2019-05-10T01:37:24.957Z,4.99
2019-05-10T01:39:56.418Z,4.99
2019-05-10T01:42:27.230Z,4.92
2019-05-10T01:44:57.836Z,4.94
2019-05-10T01:47:28.464Z,4.88
2019-05-10T01:49:59.119Z,4.96
2019-05-10T01:52:29.947Z,4.97
2019-05-10T01:55:00.658Z,4.96
2019-05-10T01:57:31.206Z,4.95
2019-05-10T02:00:01.941Z,4.90
2019-05-10T02:02:32.872Z,5.00
2019-05-10T02:05:03.436Z,4.96
2019-05-10T02:07:34.944Z,4.91
2019-05-10T02:10:07.956Z,4.89
2019-05-10T02:12:38.665Z,4.91
2019-05-10T02:15:09.879Z,4.90
2019-05-10T02:17:40.739Z,4.94
2019-05-10T02:20:11.528Z,5.01
2019-05-10T02:22:42.141Z,4.97
2019-05-10T02:25:13.166Z,4.89
2019-05-10T02:27:43.703Z,4.88
2019-05-10T02:30:14.640Z,4.87
2019-05-10T02:32:45.502Z,4.83
2019-05-10T02:35:16.212Z,4.89
2019-05-10T02:37:47.161Z,4.99
2019-05-10T02:40:18.172Z,5.10
2019-05-10T02:42:49.880Z,5.20
2019-05-10T02:45:20.652Z,5.26
2019-05-10T02:47:51.561Z,5.28
2019-05-10T02:50:22.427Z,5.29
2019-05-10T02:52:53.076Z,5.30
2019-05-10T02:55:23.963Z,5.29
2019-05-10T02:57:55.878Z,5.32
2019-05-10T03:00:26.589Z,5.31
2019-05-10T03:02:58.539Z,5.31
2019-05-10T03:05:31.229Z,5.36
2019-05-10T03:08:03.810Z,5.36
2019-05-10T03:10:36.666Z,5.28
2019-05-10T03:13:08.944Z,5.24
2019-05-10T03:15:41.179Z,5.26
2019-05-10T03:18:11.993Z,5.26
2019-05-10T03:20:44.444Z,5.20
2019-05-10T03:23:16.182Z,5.12
2019-05-10T03:25:47.083Z,5.07
2019-05-10T03:28:17.986Z,5.01
2019-05-10T03:30:48.874Z,5.01
2019-05-10T03:33:19.758Z,5.00
2019-05-10T03:35:50.575Z,5.02
2019-05-10T03:38:21.458Z,4.98
2019-05-10T03:40:52.888Z,4.96
2019-05-10T03:43:23.519Z,4.95
2019-05-10T03:45:54.407Z,4.90
2019-05-10T03:48:25.059Z,4.95
2019-05-10T03:50:55.709Z,4.99
2019-05-10T03:53:26.555Z,4.95
2019-05-10T03:55:57.279Z,4.97
2019-05-10T03:58:29.002Z,4.85
2019-05-10T04:01:00.809Z,4.82
2019-05-10T04:03:31.674Z,4.90
2019-05-10T04:06:02.555Z,4.86
2019-05-10T04:08:33.104Z,4.89
2019-05-10T04:11:05.025Z,4.98
2019-05-10T04:13:35.605Z,5.02
2019-05-10T04:16:06.330Z,5.06
2019-05-10T04:18:37.019Z,5.22
2019-05-10T04:21:07.707Z,5.26
2019-05-10T04:23:38.503Z,5.31
2019-05-10T04:26:09.219Z,5.40
2019-05-10T04:28:39.784Z,5.59
2019-05-10T04:31:10.603Z,5.52
2019-05-10T04:33:41.213Z,5.64
2019-05-10T04:36:12.938Z,5.87
2019-05-10T04:38:45.161Z,5.88
2019-05-10T04:41:15.736Z,5.87
2019-05-10T04:43:46.327Z,6.06
2019-05-10T04:46:17.750Z,6.37
2019-05-10T04:48:48.506Z,6.43
2019-05-10T04:51:19.148Z,6.55
2019-05-10T04:53:51.405Z,6.58
2019-05-10T04:56:22.098Z,6.54
2019-05-10T04:58:52.954Z,6.62
2019-05-10T05:01:25.258Z,6.92
2019-05-10T05:03:56.143Z,7.22
2019-05-10T05:06:28.246Z,7.16
2019-05-10T05:09:00.141Z,7.34
2019-05-10T05:11:30.977Z,7.56
2019-05-10T05:14:01.594Z,7.61
2019-05-10T05:16:32.552Z,7.68
2019-05-10T05:19:03.243Z,7.63
2019-05-10T05:21:34.034Z,7.70
2019-05-10T05:24:06.061Z,7.53
2019-05-10T05:26:36.944Z,7.62
2019-05-10T05:29:07.479Z,7.81
2019-05-10T05:31:38.025Z,7.90
2019-05-10T05:34:08.645Z,7.90
2019-05-10T05:36:39.184Z,8.39
2019-05-10T05:39:10.170Z,8.47
2019-05-10T05:41:48.986Z,8.80
2019-05-10T05:44:13.276Z,8.80
2019-05-10T05:46:44.445Z,9.00
2019-05-10T05:49:15.318Z,9.08
2019-05-10T05:51:46.115Z,9.53
2019-05-10T05:54:20.890Z,9.57
2019-05-10T05:56:50.772Z,9.74
2019-05-10T05:59:23.650Z,9.64
2019-05-10T06:02:00.605Z,9.70
2019-05-10T06:04:28.805Z,10.08
2019-05-10T06:07:00.587Z,9.96
2019-05-10T06:09:38.029Z,9.89
2019-05-10T06:12:07.394Z,9.98
2019-05-10T06:14:43.367Z,10.14
2019-05-10T06:17:11.704Z,10.00
2019-05-10T06:19:42.659Z,10.02
2019-05-10T06:22:13.662Z,9.89
2019-05-10T06:24:46.910Z,10.35
2019-05-10T06:27:16.958Z,10.35
2019-05-10T06:29:47.624Z,10.28
2019-05-10T06:32:18.472Z,10.25
2019-05-10T06:34:50.091Z,10.80
2019-05-10T06:37:21.050Z,10.99
2019-05-10T06:39:51.749Z,11.06
2019-05-10T06:42:22.720Z,11.35
2019-05-10T06:44:54.678Z,11.89
2019-05-10T06:47:27.535Z,11.73
2019-05-10T06:49:58.697Z,11.76
2019-05-10T06:52:30.026Z,12.18
2019-05-10T06:55:00.860Z,12.04
2019-05-10T06:57:31.781Z,12.35
2019-05-10T07:00:06.345Z,12.65
2019-05-10T07:02:36.797Z,12.54
2019-05-10T07:05:07.895Z,12.11
2019-05-10T07:07:44.702Z,12.91
2019-05-10T07:10:18.567Z,13.22
2019-05-10T07:12:45.858Z,13.28
2019-05-10T07:15:17.617Z,13.27
2019-05-10T07:17:48.513Z,13.34
2019-05-10T07:20:23.560Z,13.65
2019-05-10T07:22:52.007Z,14.18
2019-05-10T07:25:24.190Z,15.42
2019-05-10T07:27:55.216Z,17.98
2019-05-10T07:30:31.986Z,16.92
2019-05-10T07:33:02.930Z,16.41
2019-05-10T07:35:36.790Z,16.39
2019-05-10T07:38:06.831Z,20.03
2019-05-10T07:40:37.917Z,19.35
2019-05-10T07:43:08.692Z,20.11
2019-05-10T07:45:39.602Z,17.72
2019-05-10T07:48:12.048Z,20.51
2019-05-10T07:50:49.789Z,20.27
2019-05-10T07:53:16.255Z,21.49
2019-05-10T07:55:47.571Z,20.90
2019-05-10T07:58:18.300Z,22.38
2019-05-10T08:00:49.824Z,21.89
2019-05-10T08:03:23.752Z,23.85
2019-05-10T08:06:01.308Z,23.03
2019-05-10T08:08:29.757Z,23.52
2019-05-10T08:11:00.967Z,24.41
2019-05-10T08:13:31.954Z,23.56
2019-05-10T08:16:05.361Z,23.72
2019-05-10T08:18:36.385Z,25.48
2019-05-10T08:21:20.872Z,25.05
2019-05-10T08:23:43.899Z,25.00
2019-05-10T08:26:20.322Z,25.06
2019-05-10T08:28:47.633Z,23.38
2019-05-10T08:31:18.883Z,23.37
2019-05-10T08:33:58.506Z,24.94
2019-05-10T08:36:23.528Z,25.16
2019-05-10T08:39:05.072Z,24.76
2019-05-10T08:41:27.545Z,25.14
2019-05-10T08:43:58.094Z,26.68
2019-05-10T08:46:38.263Z,27.31
2019-05-10T08:49:02.103Z,27.40
2019-05-10T08:51:34.514Z,27.58
2019-05-10T08:54:05.818Z,28.21
2019-05-10T08:56:44.065Z,28.08
2019-05-10T08:59:23.196Z,27.04
2019-05-10T09:01:50.856Z,27.37
2019-05-10T09:04:22.272Z,27.15
2019-05-10T09:06:59.567Z,27.79
2019-05-10T09:09:26.315Z,28.29
2019-05-10T09:12:04.256Z,28.81
2019-05-10T09:14:32.667Z,27.61
2019-05-10T09:17:04.424Z,27.21
2019-05-10T09:19:40.537Z,27.65
2019-05-10T09:22:12.342Z,28.45
2019-05-10T09:24:48.728Z,28.10
2019-05-10T09:27:15.787Z,29.73
2019-05-10T09:29:47.144Z,26.50
2019-05-10T09:32:23.371Z,25.48
2019-05-10T09:34:54.082Z,25.23
2019-05-10T09:37:23.178Z,25.74
2019-05-10T09:40:06.060Z,24.52
2019-05-10T09:42:34.827Z,22.94
2019-05-10T09:45:02.893Z,23.39
2019-05-10T09:47:33.167Z,23.06
2019-05-10T09:50:04.543Z,22.85
2019-05-10T09:52:35.287Z,22.19
2019-05-10T09:55:11.733Z,22.00
2019-05-10T09:57:40.728Z,21.48
2019-05-10T10:00:12.993Z,20.81
2019-05-10T10:02:47.683Z,19.71
2019-05-10T10:05:17.964Z,20.12
2019-05-10T10:07:48.760Z,20.25
2019-05-10T10:10:28.574Z,20.32
2019-05-10T10:12:52.784Z,20.55
2019-05-10T10:15:33.557Z,20.55
2019-05-10T10:17:58.334Z,21.36
2019-05-10T10:20:30.045Z,21.71
2019-05-10T10:23:02.062Z,21.96
2019-05-10T10:25:35.166Z,21.38
2019-05-10T10:28:08.289Z,21.35
2019-05-10T10:30:37.571Z,21.07
2019-05-10T10:33:11.259Z,21.38
2019-05-10T10:35:41.134Z,20.69
2019-05-10T10:38:11.950Z,20.52
2019-05-10T10:40:44.891Z,20.99
2019-05-10T10:43:17.826Z,20.87
2019-05-10T10:45:48.072Z,21.59
2019-05-10T10:48:20.385Z,22.33
2019-05-10T10:50:55.733Z,22.60
2019-05-10T10:53:23.696Z,23.71
2019-05-10T10:56:00.899Z,23.38
2019-05-10T10:58:27.668Z,23.15
2019-05-10T11:01:00.307Z,22.81
2019-05-10T11:03:32.541Z,21.74
2019-05-10T11:06:03.272Z,21.19
2019-05-10T11:08:34.361Z,21.01
2019-05-10T11:11:05.134Z,20.87
2019-05-10T11:13:45.763Z,20.77
2019-05-10T11:16:14.189Z,20.92
2019-05-10T11:18:41.825Z,20.76
2019-05-10T11:21:14.118Z,20.54
2019-05-10T11:23:44.942Z,20.50
2019-05-10T11:26:18.555Z,20.53
2019-05-10T11:28:51.398Z,20.54
2019-05-10T11:31:22.738Z,20.53
2019-05-10T11:33:58.403Z,21.08
2019-05-10T11:36:26.319Z,20.87
2019-05-10T11:38:58.768Z,21.01
2019-05-10T11:41:31.429Z,21.15
2019-05-10T11:44:08.676Z,21.10
2019-05-10T11:46:36.761Z,20.89
2019-05-10T11:49:07.675Z,21.22
2019-05-10T11:51:41.162Z,21.87
2019-05-10T11:54:11.831Z,22.18
2019-05-10T11:56:43.980Z,22.36
2019-05-10T12:01:58.100Z,22.73
2019-05-10T12:04:33.098Z,22.30
2019-05-10T12:06:55.006Z,21.40
2019-05-10T12:09:25.690Z,21.99
2019-05-10T12:11:57.166Z,22.50
2019-05-10T12:14:28.787Z,23.02
2019-05-10T12:17:05.615Z,23.42
2019-05-10T12:19:36.775Z,23.29
2019-05-10T12:22:04.914Z,23.16
2019-05-10T12:24:52.133Z,22.84
2019-05-10T12:26:19.109Z,22.24
2019-05-10T12:27:18.752Z,23.23
2019-05-10T12:29:40.576Z,23.23
2019-05-10T12:32:11.287Z,23.06
2019-05-10T12:34:45.954Z,22.42
2019-05-10T12:37:14.369Z,22.52
2019-05-10T12:39:44.962Z,22.61
2019-05-10T12:42:15.886Z,22.27
2019-05-10T12:44:48.244Z,21.51
2019-05-10T12:47:21.322Z,21.77
2019-05-10T12:49:53.902Z,22.38
2019-05-10T12:52:28.618Z,22.36
2019-05-10T12:54:57.289Z,22.73
2019-05-10T12:57:27.937Z,22.99
2019-05-10T13:00:00.931Z,22.73
2019-05-10T13:02:31.743Z,22.07
2019-05-10T13:05:02.488Z,20.78
2019-05-10T13:07:36.918Z,21.01
2019-05-10T13:10:09.977Z,21.26
2019-05-10T13:12:44.500Z,21.72
2019-05-10T13:15:15.166Z,21.34
2019-05-10T13:17:50.385Z,21.76
2019-05-10T13:20:19.330Z,21.84
2019-05-10T13:22:50.195Z,22.04
2019-05-10T13:25:21.080Z,22.03
2019-05-10T13:27:51.785Z,22.30
2019-05-10T13:30:28.298Z,22.05
2019-05-10T13:32:59.113Z,21.50
2019-05-10T13:35:30.024Z,21.35
2019-05-10T13:38:04.038Z,21.70
2019-05-10T13:40:39.030Z,21.41
2019-05-10T13:43:06.993Z,22.39
2019-05-10T13:45:40.908Z,22.72
2019-05-10T13:48:13.200Z,22.09
2019-05-10T13:50:44.341Z,21.99
2019-05-10T13:53:20.889Z,22.13
2019-05-10T13:55:52.897Z,22.20
2019-05-10T13:58:27.212Z,22.03
2019-05-10T14:00:57.917Z,22.17
2019-05-10T14:03:42.213Z,21.42
2019-05-10T14:06:01.144Z,21.62
2019-05-10T14:08:32.448Z,21.51
2019-05-10T14:11:03.456Z,21.08
2019-05-10T14:13:35.740Z,21.61
2019-05-10T14:16:08.397Z,21.19
2019-05-10T14:18:40.605Z,21.38
2019-05-10T14:21:12.305Z,21.13
2019-05-10T14:23:43.016Z,21.20
2019-05-10T14:26:18.002Z,21.16
2019-05-10T14:28:53.062Z,20.94
2019-05-10T14:31:20.262Z,20.56
2019-05-10T14:34:14.005Z,20.44
2019-05-10T14:36:24.647Z,20.25
2019-05-10T14:38:56.765Z,20.08
2019-05-10T14:41:28.346Z,19.95
2019-05-10T14:43:59.197Z,20.02
2019-05-10T14:46:30.198Z,20.05
2019-05-10T14:49:08.711Z,20.40
2019-05-10T14:51:44.280Z,20.81
2019-05-10T14:54:08.887Z,20.87
2019-05-10T14:56:40.298Z,20.88
2019-05-10T14:59:11.243Z,20.79
2019-05-10T15:01:44.781Z,20.15
2019-05-10T15:04:20.186Z,19.44
2019-05-10T15:06:47.725Z,19.42
2019-05-10T15:09:21.548Z,19.24
2019-05-10T15:11:51.183Z,19.29
2019-05-10T15:14:21.908Z,19.11
2019-05-10T15:16:53.637Z,18.92
2019-05-10T15:19:28.551Z,18.52
2019-05-10T15:21:57.593Z,17.95
2019-05-10T15:24:28.507Z,17.56
2019-05-10T15:27:01.117Z,17.14
2019-05-10T15:29:31.728Z,17.12
2019-05-10T15:32:02.670Z,16.87
2019-05-10T15:34:33.438Z,16.99
2019-05-10T15:37:09.330Z,17.60
2019-05-10T15:39:37.936Z,17.58
2019-05-10T15:42:09.308Z,17.43
2019-05-10T15:44:42.043Z,17.26
2019-05-10T15:47:19.755Z,17.00
2019-05-10T15:49:47.159Z,16.99
2019-05-10T15:52:18.267Z,16.75
2019-05-10T15:54:49.174Z,16.63
2019-05-10T15:57:21.824Z,16.42
2019-05-10T15:59:56.643Z,16.69
2019-05-10T16:02:25.167Z,16.57
2019-05-10T16:04:55.753Z,16.53
2019-05-10T16:07:26.790Z,16.40
2019-05-10T16:09:57.802Z,16.45
2019-05-10T16:12:28.789Z,16.58
2019-05-10T16:14:59.664Z,16.33
2019-05-10T16:17:31.521Z,16.45
2019-05-10T16:20:02.295Z,16.54
2019-05-10T16:22:33.317Z,16.42
2019-05-10T16:25:07.636Z,16.22
2019-05-10T16:27:44.514Z,16.00
2019-05-10T16:30:17.417Z,15.99
2019-05-10T16:32:43.551Z,15.79
2019-05-10T16:35:14.976Z,15.53
2019-05-10T16:37:45.579Z,15.56
2019-05-10T16:40:17.374Z,15.36
2019-05-10T16:42:48.403Z,15.32
2019-05-10T16:45:19.314Z,15.29
2019-05-10T16:47:51.573Z,15.36
2019-05-10T16:50:26.127Z,15.37
2019-05-10T16:52:59.337Z,15.34
2019-05-10T16:55:27.563Z,15.42
2019-05-10T16:57:59.288Z,15.67
2019-05-10T17:00:30.271Z,15.61
2019-05-10T17:03:01.026Z,15.57
2019-05-10T17:05:31.654Z,15.67
2019-05-10T17:08:02.601Z,15.52
2019-05-10T17:10:34.733Z,15.63
2019-05-10T17:13:06.682Z,15.43
2019-05-10T17:15:40.026Z,15.42
2019-05-10T17:18:17.771Z,15.49
2019-05-10T17:20:45.428Z,15.41
2019-05-10T17:23:16.272Z,15.36
2019-05-10T17:25:47.187Z,15.27
2019-05-10T17:28:18.015Z,15.27
2019-05-10T17:30:49.301Z,15.31
2019-05-10T17:33:20.119Z,15.30
2019-05-10T17:35:50.966Z,15.15
2019-05-10T17:38:22.634Z,15.18
2019-05-10T17:40:54.539Z,15.18
2019-05-10T17:43:26.129Z,15.15
2019-05-10T17:45:57.245Z,15.17
2019-05-10T17:48:29.086Z,14.96
2019-05-10T17:50:59.844Z,14.96
2019-05-10T17:53:30.624Z,14.81
2019-05-10T17:56:03.658Z,14.81
2019-05-10T17:58:35.832Z,14.87
2019-05-10T18:07:56.794Z,14.56
2019-05-10T18:10:27.730Z,14.44
2019-05-10T18:13:03.471Z,14.45
2019-05-10T18:15:32.874Z,14.37
2019-05-10T18:18:04.366Z,14.24
2019-05-10T18:20:42.167Z,14.12
2019-05-10T18:23:07.968Z,14.12
2019-05-10T18:25:44.633Z,13.91
2019-05-10T18:28:19.165Z,13.69
2019-05-10T18:30:47.778Z,13.72
2019-05-10T18:33:18.502Z,13.69
2019-05-10T18:35:52.902Z,13.69
2019-05-10T18:38:21.688Z,13.67
2019-05-10T18:40:52.316Z,13.64
2019-05-10T18:43:23.012Z,13.67
2019-05-10T18:45:54.816Z,13.66
2019-05-10T18:48:25.616Z,13.67
2019-05-10T18:50:56.364Z,13.63
2019-05-10T18:53:27.961Z,13.50
2019-05-10T18:55:59.139Z,13.36
2019-05-10T18:58:31.575Z,13.24
2019-05-10T19:01:02.617Z,13.15
2019-05-10T19:03:35.504Z,13.03
2019-05-10T19:06:11.136Z,12.97
2019-05-10T19:08:38.974Z,12.96
2019-05-10T19:11:09.823Z,12.88
2019-05-10T19:13:47.969Z,12.85
2019-05-10T19:16:14.732Z,12.84
2019-05-10T19:18:45.527Z,12.82
2019-05-10T19:21:18.152Z,12.81
2019-05-10T19:23:52.266Z,12.79
2019-05-10T19:26:27.451Z,12.76
2019-05-10T19:28:58.928Z,12.82
2019-05-10T19:31:31.759Z,12.81
2019-05-10T19:34:01.160Z,12.81
2019-05-10T19:36:33.159Z,12.80
2019-05-10T19:39:06.076Z,12.78
2019-05-10T19:41:36.730Z,12.78
2019-05-10T19:44:07.780Z,12.73
2019-05-10T19:46:40.556Z,12.70
2019-05-10T19:49:13.252Z,12.71
2019-05-10T19:51:48.297Z,12.63
2019-05-10T19:54:19.553Z,12.62
2019-05-10T19:56:51.143Z,12.59
2019-05-10T19:59:23.110Z,12.57
2019-05-10T20:01:53.864Z,12.57
2019-05-10T20:04:24.722Z,12.50
2019-05-10T20:06:56.079Z,12.46
2019-05-10T20:09:28.924Z,12.42
2019-05-10T20:12:00.091Z,12.42
2019-05-10T20:14:32.266Z,12.32
2019-05-10T20:17:05.892Z,12.24
2019-05-10T20:19:37.533Z,12.17
2019-05-10T20:22:12.332Z,12.16
2019-05-10T20:24:45.225Z,12.15
2019-05-10T20:27:16.410Z,12.15
2019-05-10T20:29:47.360Z,12.16
2019-05-10T20:32:18.890Z,12.16
2019-05-10T20:34:49.768Z,12.15
2019-05-10T20:37:20.673Z,12.16
2019-05-10T20:39:51.816Z,12.21
2019-05-10T20:42:22.805Z,12.23
2019-05-10T20:45:06.583Z,12.19
2019-05-10T20:47:30.496Z,12.19
2019-05-10T20:50:01.724Z,12.17
2019-05-10T20:52:32.897Z,12.16
2019-05-10T20:55:06.010Z,12.15
2019-05-10T20:57:37.112Z,12.15
2019-05-10T21:00:08.632Z,12.14
2019-05-10T21:02:39.969Z,12.10
2019-05-10T21:05:10.832Z,12.05
2019-05-10T21:07:41.677Z,12.03
2019-05-10T21:10:12.867Z,12.04
2019-05-10T21:12:43.587Z,12.06
2019-05-10T21:15:14.459Z,12.06
2019-05-10T21:17:45.208Z,12.04
2019-05-10T21:20:16.206Z,12.00
2019-05-10T21:22:48.092Z,11.90
2019-05-10T21:25:19.013Z,11.87
2019-05-10T21:27:50.108Z,11.81
2019-05-10T21:30:21.007Z,11.70
2019-05-10T21:32:54.396Z,11.62
2019-05-10T21:35:25.189Z,11.53
2019-05-10T21:37:56.138Z,11.45
2019-05-10T21:40:26.870Z,11.35
2019-05-10T21:42:58.104Z,11.25
2019-05-10T21:45:30.324Z,11.08
2019-05-10T21:48:01.556Z,10.99
2019-05-10T21:50:33.285Z,10.92
2019-05-10T21:53:04.199Z,10.80
2019-05-10T21:55:34.903Z,10.69
2019-05-10T21:58:05.657Z,10.62
2019-05-10T22:00:37.938Z,10.47
2019-05-10T22:03:10.322Z,10.39
2019-05-10T22:05:40.906Z,10.27
2019-05-10T22:08:11.856Z,10.19
2019-05-10T22:10:42.711Z,10.18
2019-05-10T22:13:13.565Z,10.17
2019-05-10T22:15:44.295Z,10.14
2019-05-10T22:18:14.881Z,10.05
2019-05-10T22:20:45.618Z,9.99
2019-05-10T22:23:17.191Z,9.95
2019-05-10T22:25:47.954Z,9.97
2019-05-10T22:28:18.786Z,9.96
2019-05-10T22:30:49.822Z,9.95
2019-05-10T22:33:20.506Z,9.95
2019-05-10T22:35:52.317Z,10.01
2019-05-10T22:38:23.363Z,10.05
2019-05-10T22:40:54.911Z,10.10
2019-05-10T22:43:26.163Z,10.14
2019-05-10T22:45:57.658Z,10.19
2019-05-10T22:48:28.577Z,10.27
2019-05-10T22:50:59.428Z,10.36
2019-05-10T22:53:30.111Z,10.49
2019-05-10T22:56:01.055Z,10.52
2019-05-10T22:58:31.744Z,10.62
2019-05-10T23:01:02.660Z,10.68
2019-05-10T23:03:33.505Z,10.71
2019-05-10T23:06:04.191Z,10.75
2019-05-10T23:08:35.051Z,10.77
2019-05-10T23:11:05.745Z,10.83
2019-05-10T23:13:36.690Z,10.78
2019-05-10T23:16:07.511Z,10.79
2019-05-10T23:18:38.168Z,10.74
2019-05-10T23:21:08.975Z,10.70
2019-05-10T23:23:40.592Z,10.64
2019-05-10T23:26:11.538Z,10.56
2019-05-10T23:28:42.525Z,10.44
2019-05-10T23:31:13.218Z,10.35
2019-05-10T23:33:45.963Z,10.24
2019-05-10T23:36:16.849Z,10.16
2019-05-10T23:38:52.181Z,10.09
2019-05-10T23:41:21.330Z,10.04
2019-05-10T23:43:52.138Z,9.96
2019-05-10T23:46:23.342Z,9.88
2019-05-10T23:48:54.254Z,9.81
2019-05-10T23:51:25.528Z,9.81
2019-05-10T23:53:56.243Z,9.72
2019-05-10T23:56:27.023Z,9.63
2019-05-10T23:58:57.664Z,9.64
